San Rafael, CA

4:30 PM PDT on September 20, 2014 (GMT -0700)
Red Hill | Change Station
CLOSE
Current Station
Personal Weather Station
Location: San Anselmo, CA
Elevation: 250 ft
Nearby Weather Stations

Elev 250 ft 37.98 °N, 122.56 °W | Updated 4 minutes ago

Clear
Clear
79.9 °F
Feels Like 80 °F
N
6.0
Wind Variable Wind from SW
Gusts 9.0 mph

Today
High -- | Low -- °F
--% Chance of Precip.
Yesterday
High -- | Low -- °F
Precip. -- in
6:56 AM 7:10 PM
Waning Crescent, 10% visible
Pressure 29.91 in
Visibility 10.0 miles
Clouds Clear
Heat Index 80 °F
Dew Point 55 °F
Humidity 42%
Rainfall 0.00 in
Snow Depth 0 in , 0 in , 0 in
UV 3 out of 12
Pollen 4.00 out of 12
Ozone Good
Flu Activity Not available.
METAR KO69 202315Z AUTO 30011G15KT 10SM CLR 23/15 A2991 RMK AO1

More Conditions Fewer Conditions

Pressure 29.91 in
Visibility 10.0 miles
Clouds Clear
Heat Index 80 °F
Dew Point 55 °F
Humidity 42%
Rainfall 0.00 in
Snow Depth 0 in , 0 in , 0 in
UV 3 out of 12
Pollen 4.00 out of 12
Ozone Good
Flu Activity Not available.
METAR KO69 202315Z AUTO 30011G15KT 10SM CLR 23/15 A2991 RMK AO1

More Conditions Fewer Conditions

10-Day Weather Forecast

Almanac

Astronomy

Sep. 20, 2014 Rise Set
Actual Time 6:56 AM PDT 7:10 PM PDT
Civil Twilight 6:30 AM PDT 7:36 PM PDT
Nautical Twilight 5:59 AM PDT 8:07 PM PDT
Astronomical Twilight 5:27 AM PDT 8:38 PM PDT
Moon 3:43 AM PDT 5:14 PM PDT
Length of Visible Light 13h 06m
Length of Day
12h 13m
Tomorrow will be 2m 25s shorter.
Waning Crescent, 10% of the Moon is Illuminated
Today
Waning Crescent
Sep 24
New
Oct 1
First Quarter
Oct 8
Full
Oct 15
Last Quarter

Today's Extremes

State Highs State Lows

Community

WunderPhotos

Upload Photos

1,754,979 photos uploaded!

WunderBlogs® & News

Nearby

Air Quality

  Air Quality AQ Index Pollutant
Yesterday Good
OZONE
Current Good
OZONE
Saturday Moderate
PM2.5
Sunday Moderate
PM2.5
Monday Moderate
PM2.5
Tuesday Moderate
PM2.5
Wednesday Good
PM2.5
Thursday Good
OZONE

Snow Depth

Station Depth Elevation
Adin Mountain 0 in 6200 ft
Summit Meadow 0 in 9122 ft
Leavitt Meadows 0 in 7200 ft
CSS Lab 0 in 6900 ft

Earthquake Activity

City Distance Mag. Time & Date
Livermore, California 49 miles 2.6 3:37 AM PDT
2014-09-19
The Geysers, California 54 miles 2.5 11:29 PM PDT
2014-09-17
Minimum magnitude displayed is 2.5.

Coastal Water Temperatures

Place Temperature
San Francisco, CA 66.0 °F
Richmond, CA 68.0 °F
Port Chicago, CA 70.0 °F

Nearby Weather Stations